sensor_id;sensor_type;location;lat;lon;timestamp;P1;durP1;ratioP1;P2;durP2;ratioP2
67816;SDS011;54614;47.576;7.524;2024-03-06T00:02:07;1.17;;;0.80;;
67816;SDS011;54614;47.576;7.524;2024-03-06T00:04:33;1.23;;;1.10;;
67816;SDS011;54614;47.576;7.524;2024-03-06T00:06:59;2.73;;;1.00;;
67816;SDS011;54614;47.576;7.524;2024-03-06T00:09:25;1.17;;;1.07;;
67816;SDS011;54614;47.576;7.524;2024-03-06T00:11:52;1.07;;;0.97;;
67816;SDS011;54614;47.576;7.524;2024-03-06T00:14:19;2.00;;;1.00;;
67816;SDS011;54614;47.576;7.524;2024-03-06T00:16:47;4.63;;;1.00;;
67816;SDS011;54614;47.576;7.524;2024-03-06T00:19:15;0.87;;;0.87;;
67816;SDS011;54614;47.576;7.524;2024-03-06T00:21:45;0.97;;;0.97;;
67816;SDS011;54614;47.576;7.524;2024-03-06T00:24:11;1.70;;;0.80;;
67816;SDS011;54614;47.576;7.524;2024-03-06T00:26:42;1.00;;;0.90;;
67816;SDS011;54614;47.576;7.524;2024-03-06T00:29:09;2.23;;;0.90;;
67816;SDS011;54614;47.576;7.524;2024-03-06T00:31:36;2.90;;;1.00;;
67816;SDS011;54614;47.576;7.524;2024-03-06T00:34:02;1.10;;;1.00;;
67816;SDS011;54614;47.576;7.524;2024-03-06T00:36:28;1.00;;;1.00;;
67816;SDS011;54614;47.576;7.524;2024-03-06T00:38:54;1.00;;;0.90;;
67816;SDS011;54614;47.576;7.524;2024-03-06T00:41:20;1.03;;;0.93;;
67816;SDS011;54614;47.576;7.524;2024-03-06T00:43:46;0.80;;;0.80;;
67816;SDS011;54614;47.576;7.524;2024-03-06T00:46:11;0.80;;;0.80;;
67816;SDS011;54614;47.576;7.524;2024-03-06T00:48:37;0.80;;;0.80;;
67816;SDS011;54614;47.576;7.524;2024-03-06T08:29:22;2.53;;;1.30;;
67816;SDS011;54614;47.576;7.524;2024-03-06T08:31:47;4.60;;;1.40;;
67816;SDS011;54614;47.576;7.524;2024-03-06T08:34:13;6.13;;;1.67;;
67816;SDS011;54614;47.576;7.524;2024-03-06T08:36:41;9.17;;;1.80;;
67816;SDS011;54614;47.576;7.524;2024-03-06T08:39:07;5.60;;;1.70;;
67816;SDS011;54614;47.576;7.524;2024-03-06T08:41:37;5.00;;;1.40;;
67816;SDS011;54614;47.576;7.524;2024-03-06T08:44:03;2.60;;;1.30;;
67816;SDS011;54614;47.576;7.524;2024-03-06T08:46:29;5.37;;;1.60;;
67816;SDS011;54614;47.576;7.524;2024-03-06T08:48:55;3.27;;;1.40;;
67816;SDS011;54614;47.576;7.524;2024-03-06T08:51:21;4.57;;;1.50;;
67816;SDS011;54614;47.576;7.524;2024-03-06T08:53:47;3.83;;;1.20;;
67816;SDS011;54614;47.576;7.524;2024-03-06T08:56:13;6.50;;;1.40;;
67816;SDS011;54614;47.576;7.524;2024-03-06T08:58:40;1.83;;;1.30;;
67816;SDS011;54614;47.576;7.524;2024-03-06T09:01:05;5.07;;;1.30;;
67816;SDS011;54614;47.576;7.524;2024-03-06T09:03:31;9.03;;;1.50;;
67816;SDS011;54614;47.576;7.524;2024-03-06T09:05:57;3.47;;;1.30;;
67816;SDS011;54614;47.576;7.524;2024-03-06T09:08:25;4.23;;;1.53;;
67816;SDS011;54614;47.576;7.524;2024-03-06T09:10:50;3.17;;;1.30;;
67816;SDS011;54614;47.576;7.524;2024-03-06T09:13:16;9.03;;;1.47;;
67816;SDS011;54614;47.576;7.524;2024-03-06T09:15:42;4.50;;;1.53;;
67816;SDS011;54614;47.576;7.524;2024-03-06T09:18:08;3.23;;;1.30;;
67816;SDS011;54614;47.576;7.524;2024-03-06T09:20:33;6.43;;;1.30;;
67816;SDS011;54614;47.576;7.524;2024-03-06T09:22:59;4.60;;;1.80;;
67816;SDS011;54614;47.576;7.524;2024-03-06T09:25:25;4.93;;;1.27;;
67816;SDS011;54614;47.576;7.524;2024-03-06T09:27:51;5.80;;;1.40;;
67816;SDS011;54614;47.576;7.524;2024-03-06T09:30:16;2.70;;;1.50;;
67816;SDS011;54614;47.576;7.524;2024-03-06T09:32:42;3.00;;;1.37;;
67816;SDS011;54614;47.576;7.524;2024-03-06T09:35:09;4.63;;;1.20;;
67816;SDS011;54614;47.576;7.524;2024-03-06T09:37:35;4.17;;;1.50;;
67816;SDS011;54614;47.576;7.524;2024-03-06T09:40:00;3.17;;;1.40;;
67816;SDS011;54614;47.576;7.524;2024-03-06T09:42:27;2.07;;;1.20;;
67816;SDS011;54614;47.576;7.524;2024-03-06T09:44:53;1.90;;;1.30;;
67816;SDS011;54614;47.576;7.524;2024-03-06T09:47:21;3.40;;;1.30;;
67816;SDS011;54614;47.576;7.524;2024-03-06T09:49:50;2.07;;;1.40;;
67816;SDS011;54614;47.576;7.524;2024-03-06T09:52:20;4.37;;;1.20;;
67816;SDS011;54614;47.576;7.524;2024-03-06T09:54:49;3.40;;;1.40;;
67816;SDS011;54614;47.576;7.524;2024-03-06T09:57:18;1.50;;;1.30;;
67816;SDS011;54614;47.576;7.524;2024-03-06T09:59:44;1.73;;;1.20;;
67816;SDS011;54614;47.576;7.524;2024-03-06T10:02:14;6.70;;;1.50;;
67816;SDS011;54614;47.576;7.524;2024-03-06T10:04:50;4.90;;;1.60;;
67816;SDS011;54614;47.576;7.524;2024-03-06T10:07:15;8.90;;;1.50;;
67816;SDS011;54614;47.576;7.524;2024-03-06T10:09:42;4.10;;;1.43;;
67816;SDS011;54614;47.576;7.524;2024-03-06T10:12:11;4.17;;;1.20;;
67816;SDS011;54614;47.576;7.524;2024-03-06T10:14:37;3.67;;;1.30;;
67816;SDS011;54614;47.576;7.524;2024-03-06T10:17:03;4.27;;;1.30;;
67816;SDS011;54614;47.576;7.524;2024-03-06T10:19:29;2.17;;;1.20;;
67816;SDS011;54614;47.576;7.524;2024-03-06T10:21:56;2.17;;;1.20;;
67816;SDS011;54614;47.576;7.524;2024-03-06T10:24:26;4.23;;;1.20;;
67816;SDS011;54614;47.576;7.524;2024-03-06T10:26:57;3.63;;;1.27;;
67816;SDS011;54614;47.576;7.524;2024-03-06T10:29:25;3.30;;;1.30;;
67816;SDS011;54614;47.576;7.524;2024-03-06T10:31:55;2.63;;;1.17;;
67816;SDS011;54614;47.576;7.524;2024-03-06T10:34:25;2.73;;;1.23;;
67816;SDS011;54614;47.576;7.524;2024-03-06T10:37:02;3.43;;;1.40;;
67816;SDS011;54614;47.576;7.524;2024-03-06T10:39:34;5.43;;;1.20;;
67816;SDS011;54614;47.576;7.524;2024-03-06T10:42:07;1.80;;;1.10;;
67816;SDS011;54614;47.576;7.524;2024-03-06T10:44:33;2.77;;;1.20;;
67816;SDS011;54614;47.576;7.524;2024-03-06T10:47:04;3.80;;;1.20;;
67816;SDS011;54614;47.576;7.524;2024-03-06T10:49:34;5.00;;;1.30;;
67816;SDS011;54614;47.576;7.524;2024-03-06T10:52:03;2.20;;;1.13;;
67816;SDS011;54614;47.576;7.524;2024-03-06T10:54:33;2.30;;;1.40;;
67816;SDS011;54614;47.576;7.524;2024-03-06T10:57:00;2.57;;;1.27;;
67816;SDS011;54614;47.576;7.524;2024-03-06T10:59:27;2.27;;;1.20;;
67816;SDS011;54614;47.576;7.524;2024-03-06T11:01:57;1.83;;;1.30;;
67816;SDS011;54614;47.576;7.524;2024-03-06T11:04:27;1.33;;;1.20;;
67816;SDS011;54614;47.576;7.524;2024-03-06T11:06:58;1.87;;;1.23;;
67816;SDS011;54614;47.576;7.524;2024-03-06T11:09:27;1.33;;;1.10;;
67816;SDS011;54614;47.576;7.524;2024-03-06T11:12:00;2.30;;;1.40;;
67816;SDS011;54614;47.576;7.524;2024-03-06T11:14:27;2.03;;;1.20;;
67816;SDS011;54614;47.576;7.524;2024-03-06T11:28:16;1.63;;;1.10;;
67816;SDS011;54614;47.576;7.524;2024-03-06T11:33:16;2.43;;;1.20;;
67816;SDS011;54614;47.576;7.524;2024-03-06T11:35:42;2.30;;;1.13;;
67816;SDS011;54614;47.576;7.524;2024-03-06T11:38:28;2.33;;;1.20;;
67816;SDS011;54614;47.576;7.524;2024-03-06T11:40:54;1.57;;;1.20;;
67816;SDS011;54614;47.576;7.524;2024-03-06T11:43:23;2.90;;;1.10;;
67816;SDS011;54614;47.576;7.524;2024-03-06T11:45:51;1.93;;;1.10;;
67816;SDS011;54614;47.576;7.524;2024-03-06T11:48:18;1.23;;;1.17;;
67816;SDS011;54614;47.576;7.524;2024-03-06T11:50:46;1.23;;;1.13;;
67816;SDS011;54614;47.576;7.524;2024-03-06T11:53:15;1.37;;;1.17;;
67816;SDS011;54614;47.576;7.524;2024-03-06T11:55:42;2.93;;;1.07;;
67816;SDS011;54614;47.576;7.524;2024-03-06T11:58:08;2.47;;;1.13;;
67816;SDS011;54614;47.576;7.524;2024-03-06T12:00:36;3.67;;;1.20;;
67816;SDS011;54614;47.576;7.524;2024-03-06T12:03:03;1.57;;;1.10;;
67816;SDS011;54614;47.576;7.524;2024-03-06T12:05:30;2.00;;;1.20;;
67816;SDS011;54614;47.576;7.524;2024-03-06T12:07:56;2.27;;;1.30;;
67816;SDS011;54614;47.576;7.524;2024-03-06T12:10:22;2.37;;;1.03;;
67816;SDS011;54614;47.576;7.524;2024-03-06T12:12:48;2.20;;;1.10;;
67816;SDS011;54614;47.576;7.524;2024-03-06T12:15:14;1.53;;;1.00;;
67816;SDS011;54614;47.576;7.524;2024-03-06T12:17:43;2.50;;;1.20;;
67816;SDS011;54614;47.576;7.524;2024-03-06T12:20:11;1.20;;;1.10;;
67816;SDS011;54614;47.576;7.524;2024-03-06T12:22:44;1.57;;;1.17;;
67816;SDS011;54614;47.576;7.524;2024-03-06T12:25:10;2.20;;;1.10;;
67816;SDS011;54614;47.576;7.524;2024-03-06T12:27:47;1.20;;;1.00;;
67816;SDS011;54614;47.576;7.524;2024-03-06T12:30:17;2.07;;;1.20;;
67816;SDS011;54614;47.576;7.524;2024-03-06T12:32:56;1.47;;;1.20;;
67816;SDS011;54614;47.576;7.524;2024-03-06T12:35:29;1.17;;;1.10;;
67816;SDS011;54614;47.576;7.524;2024-03-06T12:37:56;1.13;;;1.10;;
67816;SDS011;54614;47.576;7.524;2024-03-06T12:40:23;1.30;;;1.20;;
67816;SDS011;54614;47.576;7.524;2024-03-06T12:42:49;1.50;;;1.10;;
67816;SDS011;54614;47.576;7.524;2024-03-06T12:45:17;2.03;;;1.03;;
67816;SDS011;54614;47.576;7.524;2024-03-06T12:47:43;1.00;;;1.00;;
67816;SDS011;54614;47.576;7.524;2024-03-06T12:50:13;1.50;;;1.40;;
67816;SDS011;54614;47.576;7.524;2024-03-06T12:52:40;1.40;;;1.30;;
67816;SDS011;54614;47.576;7.524;2024-03-06T12:55:06;2.40;;;1.10;;
67816;SDS011;54614;47.576;7.524;2024-03-06T12:57:33;1.03;;;1.03;;
67816;SDS011;54614;47.576;7.524;2024-03-06T12:59:59;1.13;;;1.10;;
67816;SDS011;54614;47.576;7.524;2024-03-06T13:02:25;1.07;;;1.00;;
67816;SDS011;54614;47.576;7.524;2024-03-06T13:04:51;1.00;;;1.00;;
67816;SDS011;54614;47.576;7.524;2024-03-06T13:07:18;1.10;;;1.10;;
67816;SDS011;54614;47.576;7.524;2024-03-06T13:09:44;1.10;;;1.00;;
67816;SDS011;54614;47.576;7.524;2024-03-06T13:12:10;1.00;;;1.00;;
67816;SDS011;54614;47.576;7.524;2024-03-06T13:14:36;1.00;;;0.90;;
67816;SDS011;54614;47.576;7.524;2024-03-06T13:17:02;1.37;;;1.00;;
67816;SDS011;54614;47.576;7.524;2024-03-06T13:19:28;1.60;;;1.10;;
67816;SDS011;54614;47.576;7.524;2024-03-06T13:21:54;2.83;;;1.00;;
67816;SDS011;54614;47.576;7.524;2024-03-06T13:24:20;1.00;;;1.00;;
67816;SDS011;54614;47.576;7.524;2024-03-06T13:26:46;1.90;;;0.87;;
67816;SDS011;54614;47.576;7.524;2024-03-06T13:29:12;0.90;;;0.90;;
67816;SDS011;54614;47.576;7.524;2024-03-06T13:31:39;1.03;;;1.03;;
67816;SDS011;54614;47.576;7.524;2024-03-06T13:34:05;1.00;;;1.00;;
67816;SDS011;54614;47.576;7.524;2024-03-06T13:36:31;1.80;;;1.10;;
67816;SDS011;54614;47.576;7.524;2024-03-06T13:38:57;1.07;;;1.07;;
67816;SDS011;54614;47.576;7.524;2024-03-06T13:41:23;1.30;;;1.20;;
67816;SDS011;54614;47.576;7.524;2024-03-06T13:43:49;1.23;;;1.17;;
67816;SDS011;54614;47.576;7.524;2024-03-06T13:46:15;1.10;;;1.10;;
67816;SDS011;54614;47.576;7.524;2024-03-06T13:48:41;1.33;;;1.20;;
67816;SDS011;54614;47.576;7.524;2024-03-06T13:51:06;1.40;;;1.30;;
67816;SDS011;54614;47.576;7.524;2024-03-06T13:53:32;1.10;;;1.10;;
67816;SDS011;54614;47.576;7.524;2024-03-06T13:55:58;2.03;;;1.23;;
67816;SDS011;54614;47.576;7.524;2024-03-06T13:58:24;2.33;;;1.13;;
67816;SDS011;54614;47.576;7.524;2024-03-06T14:00:51;1.20;;;1.10;;
67816;SDS011;54614;47.576;7.524;2024-03-06T14:03:17;1.20;;;1.10;;
67816;SDS011;54614;47.576;7.524;2024-03-06T14:05:43;1.10;;;1.10;;
67816;SDS011;54614;47.576;7.524;2024-03-06T14:08:08;1.10;;;1.10;;
67816;SDS011;54614;47.576;7.524;2024-03-06T14:10:37;1.10;;;1.10;;
67816;SDS011;54614;47.576;7.524;2024-03-06T14:13:06;1.17;;;1.13;;
67816;SDS011;54614;47.576;7.524;2024-03-06T14:15:33;1.57;;;1.13;;
67816;SDS011;54614;47.576;7.524;2024-03-06T14:18:00;1.20;;;1.20;;
67816;SDS011;54614;47.576;7.524;2024-03-06T14:20:26;1.07;;;1.07;;
67816;SDS011;54614;47.576;7.524;2024-03-06T14:22:53;1.20;;;1.10;;
67816;SDS011;54614;47.576;7.524;2024-03-06T14:25:19;1.47;;;1.30;;
67816;SDS011;54614;47.576;7.524;2024-03-06T14:27:45;1.17;;;1.10;;
67816;SDS011;54614;47.576;7.524;2024-03-06T14:30:12;1.20;;;1.10;;
67816;SDS011;54614;47.576;7.524;2024-03-06T14:32:40;1.03;;;1.03;;
67816;SDS011;54614;47.576;7.524;2024-03-06T14:35:06;1.43;;;1.10;;
67816;SDS011;54614;47.576;7.524;2024-03-06T14:37:33;2.93;;;1.10;;
67816;SDS011;54614;47.576;7.524;2024-03-06T14:39:59;4.10;;;1.20;;
67816;SDS011;54614;47.576;7.524;2024-03-06T14:42:24;2.70;;;1.20;;
67816;SDS011;54614;47.576;7.524;2024-03-06T14:44:50;1.20;;;1.20;;
67816;SDS011;54614;47.576;7.524;2024-03-06T14:47:16;2.37;;;1.10;;
67816;SDS011;54614;47.576;7.524;2024-03-06T14:49:42;1.17;;;1.07;;
67816;SDS011;54614;47.576;7.524;2024-03-06T14:52:11;1.97;;;1.20;;
67816;SDS011;54614;47.576;7.524;2024-03-06T14:54:38;1.00;;;1.00;;
67816;SDS011;54614;47.576;7.524;2024-03-06T14:57:06;1.10;;;1.10;;
67816;SDS011;54614;47.576;7.524;2024-03-06T14:59:32;1.20;;;1.10;;
67816;SDS011;54614;47.576;7.524;2024-03-06T15:01:59;1.97;;;1.13;;
67816;SDS011;54614;47.576;7.524;2024-03-06T15:04:27;4.10;;;1.30;;
67816;SDS011;54614;47.576;7.524;2024-03-06T15:06:52;1.67;;;1.20;;
67816;SDS011;54614;47.576;7.524;2024-03-06T15:09:18;1.17;;;1.13;;
67816;SDS011;54614;47.576;7.524;2024-03-06T15:11:50;2.47;;;1.17;;
67816;SDS011;54614;47.576;7.524;2024-03-06T15:14:18;1.10;;;1.10;;
67816;SDS011;54614;47.576;7.524;2024-03-06T15:16:44;1.40;;;1.30;;
67816;SDS011;54614;47.576;7.524;2024-03-06T15:19:10;4.70;;;1.13;;
67816;SDS011;54614;47.576;7.524;2024-03-06T15:21:36;2.37;;;1.20;;
67816;SDS011;54614;47.576;7.524;2024-03-06T15:24:02;2.93;;;1.30;;
67816;SDS011;54614;47.576;7.524;2024-03-06T15:26:28;4.83;;;1.53;;
67816;SDS011;54614;47.576;7.524;2024-03-06T15:28:54;3.73;;;1.30;;
67816;SDS011;54614;47.576;7.524;2024-03-06T15:31:20;1.30;;;1.17;;
67816;SDS011;54614;47.576;7.524;2024-03-06T15:33:46;4.43;;;1.37;;
67816;SDS011;54614;47.576;7.524;2024-03-06T15:36:12;1.53;;;1.43;;
67816;SDS011;54614;47.576;7.524;2024-03-06T15:38:40;1.63;;;1.20;;
67816;SDS011;54614;47.576;7.524;2024-03-06T15:41:06;1.63;;;1.10;;
67816;SDS011;54614;47.576;7.524;2024-03-06T15:43:34;2.20;;;1.20;;
67816;SDS011;54614;47.576;7.524;2024-03-06T15:46:03;2.50;;;1.30;;
67816;SDS011;54614;47.576;7.524;2024-03-06T15:48:29;2.93;;;1.17;;
67816;SDS011;54614;47.576;7.524;2024-03-06T15:50:57;1.37;;;0.97;;
67816;SDS011;54614;47.576;7.524;2024-03-06T15:53:24;1.07;;;1.00;;
67816;SDS011;54614;47.576;7.524;2024-03-06T15:55:53;1.70;;;1.10;;
67816;SDS011;54614;47.576;7.524;2024-03-06T15:58:21;1.87;;;1.20;;
67816;SDS011;54614;47.576;7.524;2024-03-06T16:00:48;2.07;;;1.10;;
67816;SDS011;54614;47.576;7.524;2024-03-06T16:03:13;1.30;;;1.17;;
67816;SDS011;54614;47.576;7.524;2024-03-06T16:05:39;1.83;;;1.20;;
67816;SDS011;54614;47.576;7.524;2024-03-06T16:08:05;1.33;;;1.20;;
67816;SDS011;54614;47.576;7.524;2024-03-06T16:10:31;1.97;;;0.93;;
67816;SDS011;54614;47.576;7.524;2024-03-06T16:12:59;1.47;;;1.10;;
67816;SDS011;54614;47.576;7.524;2024-03-06T16:15:24;1.70;;;1.33;;
67816;SDS011;54614;47.576;7.524;2024-03-06T16:17:50;1.40;;;1.00;;
67816;SDS011;54614;47.576;7.524;2024-03-06T16:20:16;2.43;;;1.23;;
67816;SDS011;54614;47.576;7.524;2024-03-06T16:22:42;3.83;;;1.20;;
67816;SDS011;54614;47.576;7.524;2024-03-06T16:25:08;1.57;;;1.20;;
67816;SDS011;54614;47.576;7.524;2024-03-06T16:27:34;1.73;;;1.30;;
67816;SDS011;54614;47.576;7.524;2024-03-06T16:30:00;1.97;;;1.30;;
67816;SDS011;54614;47.576;7.524;2024-03-06T16:32:27;2.80;;;1.10;;
67816;SDS011;54614;47.576;7.524;2024-03-06T16:34:57;1.77;;;1.20;;
67816;SDS011;54614;47.576;7.524;2024-03-06T16:37:22;1.67;;;1.20;;
67816;SDS011;54614;47.576;7.524;2024-03-06T16:39:49;3.10;;;1.10;;
67816;SDS011;54614;47.576;7.524;2024-03-06T16:42:16;2.60;;;1.10;;
67816;SDS011;54614;47.576;7.524;2024-03-06T16:44:43;2.30;;;1.10;;
67816;SDS011;54614;47.576;7.524;2024-03-06T16:47:09;1.50;;;1.03;;
67816;SDS011;54614;47.576;7.524;2024-03-06T16:49:35;5.20;;;1.17;;
67816;SDS011;54614;47.576;7.524;2024-03-06T16:52:01;1.70;;;1.10;;
67816;SDS011;54614;47.576;7.524;2024-03-06T16:54:28;3.13;;;1.40;;
67816;SDS011;54614;47.576;7.524;2024-03-06T16:56:55;2.03;;;1.30;;
67816;SDS011;54614;47.576;7.524;2024-03-06T16:59:21;1.83;;;1.20;;
67816;SDS011;54614;47.576;7.524;2024-03-06T17:01:47;2.80;;;1.30;;
67816;SDS011;54614;47.576;7.524;2024-03-06T17:04:12;1.87;;;1.20;;
67816;SDS011;54614;47.576;7.524;2024-03-06T17:06:38;1.43;;;1.10;;
67816;SDS011;54614;47.576;7.524;2024-03-06T17:09:04;1.43;;;1.00;;
67816;SDS011;54614;47.576;7.524;2024-03-06T17:11:30;4.13;;;1.17;;
67816;SDS011;54614;47.576;7.524;2024-03-06T17:13:56;4.13;;;1.27;;
67816;SDS011;54614;47.576;7.524;2024-03-06T17:16:22;6.87;;;1.40;;
67816;SDS011;54614;47.576;7.524;2024-03-06T17:18:48;4.87;;;1.33;;
67816;SDS011;54614;47.576;7.524;2024-03-06T17:21:14;7.10;;;1.38;;
67816;SDS011;54614;47.576;7.524;2024-03-06T17:23:40;3.20;;;1.47;;
67816;SDS011;54614;47.576;7.524;2024-03-06T17:26:08;5.03;;;1.20;;
67816;SDS011;54614;47.576;7.524;2024-03-06T17:28:35;4.87;;;1.20;;
67816;SDS011;54614;47.576;7.524;2024-03-06T17:31:01;3.37;;;1.27;;
67816;SDS011;54614;47.576;7.524;2024-03-06T17:33:27;1.10;;;1.00;;
67816;SDS011;54614;47.576;7.524;2024-03-06T17:35:52;1.73;;;1.07;;
67816;SDS011;54614;47.576;7.524;2024-03-06T17:38:21;1.20;;;1.10;;
67816;SDS011;54614;47.576;7.524;2024-03-06T17:40:49;3.03;;;1.30;;
67816;SDS011;54614;47.576;7.524;2024-03-06T17:43:14;1.13;;;1.00;;
67816;SDS011;54614;47.576;7.524;2024-03-06T17:45:40;2.87;;;1.10;;
67816;SDS011;54614;47.576;7.524;2024-03-06T17:48:06;1.60;;;1.20;;
67816;SDS011;54614;47.576;7.524;2024-03-06T17:50:33;4.10;;;1.30;;
67816;SDS011;54614;47.576;7.524;2024-03-06T17:53:01;2.50;;;1.10;;
67816;SDS011;54614;47.576;7.524;2024-03-06T17:55:29;3.47;;;1.10;;
67816;SDS011;54614;47.576;7.524;2024-03-06T17:57:55;3.13;;;1.20;;
67816;SDS011;54614;47.576;7.524;2024-03-06T18:00:22;4.17;;;1.33;;
67816;SDS011;54614;47.576;7.524;2024-03-06T18:02:48;5.00;;;1.40;;
67816;SDS011;54614;47.576;7.524;2024-03-06T18:05:16;2.53;;;1.23;;
67816;SDS011;54614;47.576;7.524;2024-03-06T18:07:42;10.97;;;2.10;;
67816;SDS011;54614;47.576;7.524;2024-03-06T18:10:08;4.97;;;1.50;;
67816;SDS011;54614;47.576;7.524;2024-03-06T18:12:34;3.33;;;1.40;;
67816;SDS011;54614;47.576;7.524;2024-03-06T18:15:00;2.63;;;1.30;;
67816;SDS011;54614;47.576;7.524;2024-03-06T18:17:26;3.13;;;1.33;;
67816;SDS011;54614;47.576;7.524;2024-03-06T18:19:53;4.13;;;1.30;;
67816;SDS011;54614;47.576;7.524;2024-03-06T18:22:19;2.23;;;1.47;;
67816;SDS011;54614;47.576;7.524;2024-03-06T18:24:47;4.13;;;1.50;;
67816;SDS011;54614;47.576;7.524;2024-03-06T18:27:14;6.37;;;1.73;;
67816;SDS011;54614;47.576;7.524;2024-03-06T18:29:42;8.93;;;1.70;;
67816;SDS011;54614;47.576;7.524;2024-03-06T18:32:10;7.33;;;2.07;;
67816;SDS011;54614;47.576;7.524;2024-03-06T18:34:36;4.93;;;1.60;;
67816;SDS011;54614;47.576;7.524;2024-03-06T18:37:01;11.10;;;2.30;;
67816;SDS011;54614;47.576;7.524;2024-03-06T18:39:28;3.83;;;1.60;;
67816;SDS011;54614;47.576;7.524;2024-03-06T18:41:54;3.63;;;1.50;;
67816;SDS011;54614;47.576;7.524;2024-03-06T18:44:20;3.10;;;1.47;;
67816;SDS011;54614;47.576;7.524;2024-03-06T18:46:45;1.67;;;1.27;;
67816;SDS011;54614;47.576;7.524;2024-03-06T18:49:11;7.53;;;1.70;;
67816;SDS011;54614;47.576;7.524;2024-03-06T18:51:45;4.40;;;1.63;;
67816;SDS011;54614;47.576;7.524;2024-03-06T18:54:13;5.18;;;1.70;;
67816;SDS011;54614;47.576;7.524;2024-03-06T18:56:39;7.17;;;1.87;;
67816;SDS011;54614;47.576;7.524;2024-03-06T18:59:05;3.20;;;1.33;;
67816;SDS011;54614;47.576;7.524;2024-03-06T19:01:32;3.37;;;1.50;;
67816;SDS011;54614;47.576;7.524;2024-03-06T19:03:58;6.90;;;1.45;;
67816;SDS011;54614;47.576;7.524;2024-03-06T19:06:23;7.93;;;1.50;;
67816;SDS011;54614;47.576;7.524;2024-03-06T19:08:49;3.87;;;1.40;;
67816;SDS011;54614;47.576;7.524;2024-03-06T19:11:16;8.43;;;1.40;;
67816;SDS011;54614;47.576;7.524;2024-03-06T19:13:41;4.37;;;1.50;;
67816;SDS011;54614;47.576;7.524;2024-03-06T19:16:07;2.17;;;1.53;;
67816;SDS011;54614;47.576;7.524;2024-03-06T19:18:35;4.83;;;1.43;;
67816;SDS011;54614;47.576;7.524;2024-03-06T19:21:02;1.50;;;1.40;;
67816;SDS011;54614;47.576;7.524;2024-03-06T19:23:28;2.67;;;1.50;;
67816;SDS011;54614;47.576;7.524;2024-03-06T19:25:54;5.47;;;1.70;;
67816;SDS011;54614;47.576;7.524;2024-03-06T19:28:20;3.50;;;1.50;;
67816;SDS011;54614;47.576;7.524;2024-03-06T19:30:46;4.40;;;1.57;;
67816;SDS011;54614;47.576;7.524;2024-03-06T19:33:12;1.57;;;1.47;;
67816;SDS011;54614;47.576;7.524;2024-03-06T19:35:37;1.70;;;1.60;;
67816;SDS011;54614;47.576;7.524;2024-03-06T19:38:05;2.93;;;1.50;;
67816;SDS011;54614;47.576;7.524;2024-03-06T19:40:30;4.53;;;1.60;;
67816;SDS011;54614;47.576;7.524;2024-03-06T19:42:56;2.33;;;1.40;;
67816;SDS011;54614;47.576;7.524;2024-03-06T19:45:22;3.60;;;1.70;;
67816;SDS011;54614;47.576;7.524;2024-03-06T19:47:48;2.10;;;1.60;;
67816;SDS011;54614;47.576;7.524;2024-03-06T19:50:14;9.90;;;1.60;;
67816;SDS011;54614;47.576;7.524;2024-03-06T19:52:39;2.20;;;1.40;;
67816;SDS011;54614;47.576;7.524;2024-03-06T19:55:05;2.27;;;1.67;;
67816;SDS011;54614;47.576;7.524;2024-03-06T19:57:31;3.03;;;1.60;;
67816;SDS011;54614;47.576;7.524;2024-03-06T19:59:59;1.70;;;1.50;;
67816;SDS011;54614;47.576;7.524;2024-03-06T20:02:24;3.47;;;1.60;;
67816;SDS011;54614;47.576;7.524;2024-03-06T20:04:51;1.70;;;1.60;;
67816;SDS011;54614;47.576;7.524;2024-03-06T20:07:16;5.47;;;1.50;;
67816;SDS011;54614;47.576;7.524;2024-03-06T20:09:44;2.53;;;1.53;;
67816;SDS011;54614;47.576;7.524;2024-03-06T20:12:10;1.63;;;1.50;;
67816;SDS011;54614;47.576;7.524;2024-03-06T20:14:36;1.50;;;1.40;;
67816;SDS011;54614;47.576;7.524;2024-03-06T20:17:02;7.00;;;1.70;;
67816;SDS011;54614;47.576;7.524;2024-03-06T20:19:28;1.67;;;1.57;;
67816;SDS011;54614;47.576;7.524;2024-03-06T20:21:53;4.67;;;1.53;;
67816;SDS011;54614;47.576;7.524;2024-03-06T20:24:19;2.33;;;1.57;;
67816;SDS011;54614;47.576;7.524;2024-03-06T20:26:49;2.73;;;1.60;;
67816;SDS011;54614;47.576;7.524;2024-03-06T20:29:14;1.60;;;1.50;;
67816;SDS011;54614;47.576;7.524;2024-03-06T20:31:40;1.73;;;1.63;;
67816;SDS011;54614;47.576;7.524;2024-03-06T20:34:10;2.17;;;1.60;;
67816;SDS011;54614;47.576;7.524;2024-03-06T20:36:36;7.20;;;1.70;;
67816;SDS011;54614;47.576;7.524;2024-03-06T20:39:01;1.97;;;1.60;;
67816;SDS011;54614;47.576;7.524;2024-03-06T20:41:28;2.20;;;1.87;;
67816;SDS011;54614;47.576;7.524;2024-03-06T20:43:54;4.97;;;1.67;;
67816;SDS011;54614;47.576;7.524;2024-03-06T20:46:20;6.00;;;1.70;;
67816;SDS011;54614;47.576;7.524;2024-03-06T20:48:46;1.70;;;1.60;;
67816;SDS011;54614;47.576;7.524;2024-03-06T20:51:12;1.70;;;1.60;;
67816;SDS011;54614;47.576;7.524;2024-03-06T20:53:38;3.10;;;1.70;;
67816;SDS011;54614;47.576;7.524;2024-03-06T20:56:04;3.67;;;1.50;;
67816;SDS011;54614;47.576;7.524;2024-03-06T20:58:32;2.00;;;1.80;;
67816;SDS011;54614;47.576;7.524;2024-03-06T21:00:58;3.97;;;1.60;;
67816;SDS011;54614;47.576;7.524;2024-03-06T21:03:24;2.70;;;1.60;;
67816;SDS011;54614;47.576;7.524;2024-03-06T21:05:50;1.70;;;1.60;;
67816;SDS011;54614;47.576;7.524;2024-03-06T21:08:16;5.10;;;1.90;;
67816;SDS011;54614;47.576;7.524;2024-03-06T21:10:42;3.77;;;1.87;;
67816;SDS011;54614;47.576;7.524;2024-03-06T21:13:09;4.00;;;1.70;;
67816;SDS011;54614;47.576;7.524;2024-03-06T21:15:35;2.47;;;1.60;;
67816;SDS011;54614;47.576;7.524;2024-03-06T21:18:02;3.03;;;1.57;;
67816;SDS011;54614;47.576;7.524;2024-03-06T21:20:32;4.37;;;1.70;;
67816;SDS011;54614;47.576;7.524;2024-03-06T21:22:58;5.77;;;1.90;;
67816;SDS011;54614;47.576;7.524;2024-03-06T21:25:25;2.27;;;1.50;;
67816;SDS011;54614;47.576;7.524;2024-03-06T21:27:51;3.30;;;1.60;;
67816;SDS011;54614;47.576;7.524;2024-03-06T21:30:18;2.83;;;1.60;;
67816;SDS011;54614;47.576;7.524;2024-03-06T21:32:44;1.70;;;1.60;;
67816;SDS011;54614;47.576;7.524;2024-03-06T21:35:10;3.73;;;1.70;;
67816;SDS011;54614;47.576;7.524;2024-03-06T21:37:37;4.73;;;1.80;;
67816;SDS011;54614;47.576;7.524;2024-03-06T21:40:04;3.67;;;1.63;;
67816;SDS011;54614;47.576;7.524;2024-03-06T21:42:31;2.80;;;1.50;;
67816;SDS011;54614;47.576;7.524;2024-03-06T21:44:57;5.43;;;1.80;;
67816;SDS011;54614;47.576;7.524;2024-03-06T21:47:23;2.67;;;1.63;;
67816;SDS011;54614;47.576;7.524;2024-03-06T21:49:49;3.37;;;1.57;;
67816;SDS011;54614;47.576;7.524;2024-03-06T21:52:15;3.90;;;1.70;;
67816;SDS011;54614;47.576;7.524;2024-03-06T21:54:42;2.67;;;1.50;;
67816;SDS011;54614;47.576;7.524;2024-03-06T21:57:08;3.90;;;1.70;;
67816;SDS011;54614;47.576;7.524;2024-03-06T21:59:39;6.33;;;1.90;;
67816;SDS011;54614;47.576;7.524;2024-03-06T22:02:06;4.37;;;1.70;;
67816;SDS011;54614;47.576;7.524;2024-03-06T22:04:33;5.97;;;1.70;;
67816;SDS011;54614;47.576;7.524;2024-03-06T22:06:59;4.97;;;1.90;;
67816;SDS011;54614;47.576;7.524;2024-03-06T22:09:25;2.30;;;1.70;;
67816;SDS011;54614;47.576;7.524;2024-03-06T22:11:50;4.80;;;1.90;;
67816;SDS011;54614;47.576;7.524;2024-03-06T22:14:16;5.67;;;1.90;;
67816;SDS011;54614;47.576;7.524;2024-03-06T22:16:45;2.70;;;1.80;;
67816;SDS011;54614;47.576;7.524;2024-03-06T22:19:11;3.70;;;1.73;;
67816;SDS011;54614;47.576;7.524;2024-03-06T22:21:38;5.83;;;1.70;;
67816;SDS011;54614;47.576;7.524;2024-03-06T22:24:04;7.77;;;1.70;;
67816;SDS011;54614;47.576;7.524;2024-03-06T22:26:30;3.87;;;1.80;;
67816;SDS011;54614;47.576;7.524;2024-03-06T22:28:56;2.70;;;1.83;;
67816;SDS011;54614;47.576;7.524;2024-03-06T22:31:22;6.40;;;1.70;;
67816;SDS011;54614;47.576;7.524;2024-03-06T22:33:50;2.13;;;1.53;;
67816;SDS011;54614;47.576;7.524;2024-03-06T22:36:19;3.33;;;1.70;;
67816;SDS011;54614;47.576;7.524;2024-03-06T22:38:45;2.30;;;1.60;;